sensor_id;sensor_type;location;lat;lon;timestamp;P1;durP1;ratioP1;P2;durP2;ratioP2
80157;SDS011;74139;59.092;37.932;2024-01-30T00:02:23;2.75;;;0.80;;
80157;SDS011;74139;59.092;37.932;2024-01-30T00:04:49;1.83;;;0.85;;
80157;SDS011;74139;59.092;37.932;2024-01-30T00:07:15;2.28;;;1.08;;
80157;SDS011;74139;59.092;37.932;2024-01-30T00:09:40;1.23;;;0.70;;
80157;SDS011;74139;59.092;37.932;2024-01-30T00:12:06;2.40;;;0.80;;
80157;SDS011;74139;59.092;37.932;2024-01-30T00:14:32;1.40;;;0.85;;
80157;SDS011;74139;59.092;37.932;2024-01-30T00:16:58;0.98;;;0.70;;
80157;SDS011;74139;59.092;37.932;2024-01-30T00:19:24;2.38;;;0.80;;
80157;SDS011;74139;59.092;37.932;2024-01-30T00:21:50;1.35;;;0.75;;
80157;SDS011;74139;59.092;37.932;2024-01-30T00:24:15;1.25;;;0.70;;
80157;SDS011;74139;59.092;37.932;2024-01-30T00:26:41;3.28;;;0.98;;
80157;SDS011;74139;59.092;37.932;2024-01-30T00:29:07;1.55;;;0.90;;
80157;SDS011;74139;59.092;37.932;2024-01-30T00:31:33;2.83;;;0.90;;
80157;SDS011;74139;59.092;37.932;2024-01-30T00:33:59;1.52;;;0.80;;
80157;SDS011;74139;59.092;37.932;2024-01-30T00:36:24;1.90;;;0.90;;
80157;SDS011;74139;59.092;37.932;2024-01-30T00:38:50;2.80;;;1.27;;
80157;SDS011;74139;59.092;37.932;2024-01-30T00:41:19;1.92;;;0.90;;
80157;SDS011;74139;59.092;37.932;2024-01-30T00:43:45;2.30;;;0.80;;
80157;SDS011;74139;59.092;37.932;2024-01-30T00:46:11;1.58;;;1.00;;
80157;SDS011;74139;59.092;37.932;2024-01-30T00:48:37;1.27;;;0.90;;
80157;SDS011;74139;59.092;37.932;2024-01-30T00:51:02;1.65;;;0.80;;
80157;SDS011;74139;59.092;37.932;2024-01-30T00:53:28;2.13;;;0.93;;
80157;SDS011;74139;59.092;37.932;2024-01-30T00:55:54;1.73;;;1.15;;
80157;SDS011;74139;59.092;37.932;2024-01-30T00:58:20;1.50;;;0.80;;
80157;SDS011;74139;59.092;37.932;2024-01-30T01:00:46;2.00;;;1.08;;
80157;SDS011;74139;59.092;37.932;2024-01-30T01:03:11;1.70;;;0.80;;
80157;SDS011;74139;59.092;37.932;2024-01-30T01:05:37;1.63;;;0.88;;
80157;SDS011;74139;59.092;37.932;2024-01-30T01:08:03;2.63;;;0.73;;
80157;SDS011;74139;59.092;37.932;2024-01-30T01:10:29;1.63;;;0.73;;
80157;SDS011;74139;59.092;37.932;2024-01-30T01:12:55;3.00;;;0.95;;
80157;SDS011;74139;59.092;37.932;2024-01-30T01:15:21;1.88;;;0.80;;
80157;SDS011;74139;59.092;37.932;2024-01-30T01:17:46;2.60;;;1.30;;
80157;SDS011;74139;59.092;37.932;2024-01-30T01:20:12;1.92;;;0.95;;
80157;SDS011;74139;59.092;37.932;2024-01-30T01:22:38;2.45;;;0.75;;
80157;SDS011;74139;59.092;37.932;2024-01-30T01:25:04;2.78;;;1.00;;
80157;SDS011;74139;59.092;37.932;2024-01-30T01:27:33;2.17;;;0.77;;
80157;SDS011;74139;59.092;37.932;2024-01-30T01:30:00;2.47;;;0.88;;
80157;SDS011;74139;59.092;37.932;2024-01-30T01:32:26;2.00;;;1.05;;
80157;SDS011;74139;59.092;37.932;2024-01-30T01:34:51;2.83;;;0.80;;
80157;SDS011;74139;59.092;37.932;2024-01-30T01:37:17;1.63;;;0.88;;
80157;SDS011;74139;59.092;37.932;2024-01-30T01:39:43;1.70;;;1.10;;
80157;SDS011;74139;59.092;37.932;2024-01-30T01:42:09;3.15;;;1.05;;
80157;SDS011;74139;59.092;37.932;2024-01-30T01:44:35;3.50;;;0.90;;
80157;SDS011;74139;59.092;37.932;2024-01-30T01:47:01;1.52;;;0.82;;
80157;SDS011;74139;59.092;37.932;2024-01-30T01:49:27;1.73;;;0.82;;
80157;SDS011;74139;59.092;37.932;2024-01-30T01:51:53;1.70;;;0.80;;
80157;SDS011;74139;59.092;37.932;2024-01-30T01:54:19;1.33;;;0.80;;
80157;SDS011;74139;59.092;37.932;2024-01-30T01:56:45;1.73;;;1.15;;
80157;SDS011;74139;59.092;37.932;2024-01-30T01:59:11;2.72;;;0.90;;
80157;SDS011;74139;59.092;37.932;2024-01-30T02:01:37;2.97;;;0.82;;
80157;SDS011;74139;59.092;37.932;2024-01-30T02:04:04;2.58;;;0.95;;
80157;SDS011;74139;59.092;37.932;2024-01-30T02:06:30;2.55;;;1.17;;
80157;SDS011;74139;59.092;37.932;2024-01-30T02:08:56;2.33;;;0.82;;
80157;SDS011;74139;59.092;37.932;2024-01-30T02:11:22;2.60;;;1.10;;
80157;SDS011;74139;59.092;37.932;2024-01-30T02:13:48;3.08;;;1.00;;
80157;SDS011;74139;59.092;37.932;2024-01-30T02:16:14;2.67;;;1.00;;
80157;SDS011;74139;59.092;37.932;2024-01-30T02:18:40;1.15;;;0.82;;
80157;SDS011;74139;59.092;37.932;2024-01-30T02:21:17;2.55;;;0.90;;
80157;SDS011;74139;59.092;37.932;2024-01-30T02:23:44;2.80;;;1.17;;
80157;SDS011;74139;59.092;37.932;2024-01-30T02:26:12;2.05;;;1.00;;
80157;SDS011;74139;59.092;37.932;2024-01-30T02:28:38;2.30;;;0.95;;
80157;SDS011;74139;59.092;37.932;2024-01-30T02:31:04;1.38;;;0.75;;
80157;SDS011;74139;59.092;37.932;2024-01-30T02:33:30;3.15;;;1.02;;
80157;SDS011;74139;59.092;37.932;2024-01-30T02:35:55;3.83;;;1.10;;
80157;SDS011;74139;59.092;37.932;2024-01-30T02:38:21;2.25;;;1.00;;
80157;SDS011;74139;59.092;37.932;2024-01-30T02:40:48;2.95;;;1.30;;
80157;SDS011;74139;59.092;37.932;2024-01-30T02:43:15;1.42;;;0.80;;
80157;SDS011;74139;59.092;37.932;2024-01-30T02:45:41;2.15;;;0.90;;
80157;SDS011;74139;59.092;37.932;2024-01-30T02:48:08;1.33;;;0.90;;
80157;SDS011;74139;59.092;37.932;2024-01-30T02:50:34;2.53;;;1.20;;
80157;SDS011;74139;59.092;37.932;2024-01-30T02:53:00;2.58;;;0.93;;
80157;SDS011;74139;59.092;37.932;2024-01-30T02:55:26;1.85;;;0.90;;
80157;SDS011;74139;59.092;37.932;2024-01-30T02:57:51;3.85;;;0.93;;
80157;SDS011;74139;59.092;37.932;2024-01-30T03:00:20;4.75;;;1.15;;
80157;SDS011;74139;59.092;37.932;2024-01-30T03:02:46;2.45;;;1.13;;
80157;SDS011;74139;59.092;37.932;2024-01-30T03:05:12;3.17;;;1.20;;
80157;SDS011;74139;59.092;37.932;2024-01-30T03:07:37;2.80;;;1.33;;
80157;SDS011;74139;59.092;37.932;2024-01-30T03:10:04;2.55;;;0.90;;
80157;SDS011;74139;59.092;37.932;2024-01-30T03:12:30;1.77;;;1.17;;
80157;SDS011;74139;59.092;37.932;2024-01-30T03:14:55;1.50;;;1.00;;
80157;SDS011;74139;59.092;37.932;2024-01-30T03:17:21;1.98;;;1.10;;
80157;SDS011;74139;59.092;37.932;2024-01-30T03:19:47;4.05;;;1.13;;
80157;SDS011;74139;59.092;37.932;2024-01-30T03:22:13;2.15;;;1.00;;
80157;SDS011;74139;59.092;37.932;2024-01-30T03:24:39;1.25;;;0.73;;
80157;SDS011;74139;59.092;37.932;2024-01-30T03:27:04;3.92;;;1.10;;
80157;SDS011;74139;59.092;37.932;2024-01-30T03:29:30;2.90;;;1.30;;
80157;SDS011;74139;59.092;37.932;2024-01-30T03:31:56;2.17;;;1.00;;
80157;SDS011;74139;59.092;37.932;2024-01-30T03:34:22;1.55;;;1.00;;
80157;SDS011;74139;59.092;37.932;2024-01-30T03:36:48;2.92;;;1.20;;
80157;SDS011;74139;59.092;37.932;2024-01-30T03:39:13;3.13;;;1.17;;
80157;SDS011;74139;59.092;37.932;2024-01-30T03:41:41;1.77;;;1.10;;
80157;SDS011;74139;59.092;37.932;2024-01-30T03:44:07;3.42;;;1.23;;
80157;SDS011;74139;59.092;37.932;2024-01-30T03:46:33;2.25;;;0.85;;
80157;SDS011;74139;59.092;37.932;2024-01-30T03:48:59;3.10;;;1.17;;
80157;SDS011;74139;59.092;37.932;2024-01-30T03:51:25;4.03;;;1.35;;
80157;SDS011;74139;59.092;37.932;2024-01-30T03:53:51;2.47;;;1.35;;
80157;SDS011;74139;59.092;37.932;2024-01-30T03:56:17;1.90;;;1.10;;
80157;SDS011;74139;59.092;37.932;2024-01-30T03:58:42;2.65;;;1.08;;
80157;SDS011;74139;59.092;37.932;2024-01-30T04:01:12;2.92;;;1.30;;
80157;SDS011;74139;59.092;37.932;2024-01-30T04:03:38;3.03;;;1.13;;
80157;SDS011;74139;59.092;37.932;2024-01-30T04:06:04;2.40;;;1.30;;
80157;SDS011;74139;59.092;37.932;2024-01-30T04:08:30;2.28;;;1.20;;
80157;SDS011;74139;59.092;37.932;2024-01-30T04:10:56;3.20;;;1.23;;
80157;SDS011;74139;59.092;37.932;2024-01-30T04:13:21;3.20;;;1.30;;
80157;SDS011;74139;59.092;37.932;2024-01-30T04:15:47;3.25;;;1.45;;
80157;SDS011;74139;59.092;37.932;2024-01-30T04:18:13;2.47;;;1.25;;
80157;SDS011;74139;59.092;37.932;2024-01-30T04:20:39;2.80;;;1.20;;
80157;SDS011;74139;59.092;37.932;2024-01-30T04:23:05;3.45;;;1.60;;
80157;SDS011;74139;59.092;37.932;2024-01-30T04:27:57;3.13;;;1.10;;
80157;SDS011;74139;59.092;37.932;2024-01-30T04:30:23;1.80;;;1.10;;
80157;SDS011;74139;59.092;37.932;2024-01-30T04:32:49;3.40;;;1.50;;
80157;SDS011;74139;59.092;37.932;2024-01-30T04:35:14;3.65;;;1.20;;
80157;SDS011;74139;59.092;37.932;2024-01-30T04:37:40;2.58;;;1.00;;
80157;SDS011;74139;59.092;37.932;2024-01-30T04:40:06;2.75;;;1.08;;
80157;SDS011;74139;59.092;37.932;2024-01-30T04:42:32;4.10;;;1.35;;
80157;SDS011;74139;59.092;37.932;2024-01-30T04:44:58;3.95;;;1.20;;
80157;SDS011;74139;59.092;37.932;2024-01-30T04:47:24;3.72;;;1.10;;
80157;SDS011;74139;59.092;37.932;2024-01-30T04:49:51;3.78;;;1.23;;
80157;SDS011;74139;59.092;37.932;2024-01-30T04:52:16;3.60;;;1.38;;
80157;SDS011;74139;59.092;37.932;2024-01-30T04:54:42;3.50;;;1.67;;
80157;SDS011;74139;59.092;37.932;2024-01-30T04:57:08;2.58;;;1.00;;
80157;SDS011;74139;59.092;37.932;2024-01-30T04:59:37;4.07;;;1.42;;
80157;SDS011;74139;59.092;37.932;2024-01-30T05:02:03;3.53;;;1.50;;
80157;SDS011;74139;59.092;37.932;2024-01-30T05:04:29;4.05;;;1.50;;
80157;SDS011;74139;59.092;37.932;2024-01-30T05:06:55;4.97;;;1.55;;
80157;SDS011;74139;59.092;37.932;2024-01-30T05:09:21;5.00;;;1.83;;
80157;SDS011;74139;59.092;37.932;2024-01-30T05:11:46;2.83;;;1.50;;
80157;SDS011;74139;59.092;37.932;2024-01-30T05:14:12;4.10;;;1.60;;
80157;SDS011;74139;59.092;37.932;2024-01-30T05:16:40;4.28;;;1.80;;
80157;SDS011;74139;59.092;37.932;2024-01-30T05:19:06;5.18;;;1.67;;
80157;SDS011;74139;59.092;37.932;2024-01-30T05:21:32;4.40;;;1.75;;
80157;SDS011;74139;59.092;37.932;2024-01-30T05:23:58;3.15;;;1.30;;
80157;SDS011;74139;59.092;37.932;2024-01-30T05:26:24;4.80;;;1.50;;
80157;SDS011;74139;59.092;37.932;2024-01-30T05:28:50;3.67;;;1.80;;
80157;SDS011;74139;59.092;37.932;2024-01-30T05:31:15;3.50;;;1.27;;
80157;SDS011;74139;59.092;37.932;2024-01-30T05:33:41;4.55;;;1.67;;
80157;SDS011;74139;59.092;37.932;2024-01-30T05:36:07;4.00;;;1.40;;
80157;SDS011;74139;59.092;37.932;2024-01-30T05:38:33;2.53;;;1.65;;
80157;SDS011;74139;59.092;37.932;2024-01-30T05:40:59;2.92;;;1.23;;
80157;SDS011;74139;59.092;37.932;2024-01-30T05:43:25;2.72;;;1.38;;
80157;SDS011;74139;59.092;37.932;2024-01-30T05:45:51;2.22;;;1.13;;
80157;SDS011;74139;59.092;37.932;2024-01-30T05:48:17;5.10;;;1.20;;
80157;SDS011;74139;59.092;37.932;2024-01-30T05:50:43;5.78;;;1.50;;
80157;SDS011;74139;59.092;37.932;2024-01-30T05:53:09;2.85;;;1.30;;
80157;SDS011;74139;59.092;37.932;2024-01-30T05:55:34;5.38;;;1.30;;
80157;SDS011;74139;59.092;37.932;2024-01-30T05:58:00;3.70;;;1.65;;
80157;SDS011;74139;59.092;37.932;2024-01-30T06:00:26;2.92;;;1.00;;
80157;SDS011;74139;59.092;37.932;2024-01-30T06:02:52;3.90;;;1.42;;
80157;SDS011;74139;59.092;37.932;2024-01-30T06:05:18;6.15;;;1.50;;
80157;SDS011;74139;59.092;37.932;2024-01-30T06:07:44;3.58;;;1.23;;
80157;SDS011;74139;59.092;37.932;2024-01-30T06:10:09;3.70;;;1.33;;
80157;SDS011;74139;59.092;37.932;2024-01-30T06:12:35;2.20;;;1.35;;
80157;SDS011;74139;59.092;37.932;2024-01-30T06:15:01;2.03;;;1.23;;
80157;SDS011;74139;59.092;37.932;2024-01-30T06:17:28;1.67;;;0.93;;
80157;SDS011;74139;59.092;37.932;2024-01-30T06:19:53;5.15;;;1.20;;
80157;SDS011;74139;59.092;37.932;2024-01-30T06:22:19;2.80;;;1.00;;
80157;SDS011;74139;59.092;37.932;2024-01-30T06:24:45;2.40;;;1.10;;
80157;SDS011;74139;59.092;37.932;2024-01-30T06:27:13;2.22;;;1.27;;
80157;SDS011;74139;59.092;37.932;2024-01-30T06:29:39;3.75;;;1.10;;
80157;SDS011;74139;59.092;37.932;2024-01-30T06:32:05;2.47;;;1.02;;
80157;SDS011;74139;59.092;37.932;2024-01-30T06:34:31;4.00;;;1.40;;
80157;SDS011;74139;59.092;37.932;2024-01-30T06:36:57;2.05;;;1.13;;
80157;SDS011;74139;59.092;37.932;2024-01-30T06:39:23;4.00;;;1.20;;
80157;SDS011;74139;59.092;37.932;2024-01-30T06:41:49;1.67;;;0.98;;
80157;SDS011;74139;59.092;37.932;2024-01-30T06:44:15;2.05;;;1.13;;
80157;SDS011;74139;59.092;37.932;2024-01-30T06:46:41;3.72;;;1.38;;
80157;SDS011;74139;59.092;37.932;2024-01-30T06:49:06;2.40;;;1.08;;
80157;SDS011;74139;59.092;37.932;2024-01-30T06:51:32;2.58;;;1.30;;
80157;SDS011;74139;59.092;37.932;2024-01-30T06:53:58;3.00;;;1.17;;
80157;SDS011;74139;59.092;37.932;2024-01-30T06:56:24;2.67;;;1.35;;
80157;SDS011;74139;59.092;37.932;2024-01-30T06:58:50;2.30;;;1.08;;
80157;SDS011;74139;59.092;37.932;2024-01-30T07:01:16;3.05;;;1.00;;
80157;SDS011;74139;59.092;37.932;2024-01-30T07:03:42;3.38;;;1.40;;
80157;SDS011;74139;59.092;37.932;2024-01-30T07:06:09;2.45;;;1.02;;
80157;SDS011;74139;59.092;37.932;2024-01-30T07:08:36;3.55;;;1.10;;
80157;SDS011;74139;59.092;37.932;2024-01-30T07:11:07;3.03;;;1.00;;
80157;SDS011;74139;59.092;37.932;2024-01-30T07:13:33;3.20;;;1.10;;
80157;SDS011;74139;59.092;37.932;2024-01-30T07:15:59;3.05;;;1.25;;
80157;SDS011;74139;59.092;37.932;2024-01-30T07:18:25;1.80;;;1.02;;
80157;SDS011;74139;59.092;37.932;2024-01-30T07:20:51;3.83;;;1.30;;
80157;SDS011;74139;59.092;37.932;2024-01-30T07:23:17;1.80;;;1.20;;
80157;SDS011;74139;59.092;37.932;2024-01-30T07:25:43;1.52;;;1.05;;
80157;SDS011;74139;59.092;37.932;2024-01-30T07:28:10;2.60;;;1.30;;
80157;SDS011;74139;59.092;37.932;2024-01-30T07:30:36;2.33;;;1.30;;
80157;SDS011;74139;59.092;37.932;2024-01-30T07:33:02;4.65;;;1.30;;
80157;SDS011;74139;59.092;37.932;2024-01-30T07:35:28;1.50;;;1.13;;
80157;SDS011;74139;59.092;37.932;2024-01-30T07:37:54;3.80;;;1.40;;
80157;SDS011;74139;59.092;37.932;2024-01-30T07:40:19;2.67;;;1.20;;
80157;SDS011;74139;59.092;37.932;2024-01-30T07:42:45;3.72;;;1.33;;
80157;SDS011;74139;59.092;37.932;2024-01-30T07:45:11;3.70;;;1.45;;
80157;SDS011;74139;59.092;37.932;2024-01-30T07:47:37;3.75;;;1.17;;
80157;SDS011;74139;59.092;37.932;2024-01-30T07:50:03;2.20;;;1.17;;
80157;SDS011;74139;59.092;37.932;2024-01-30T07:52:29;4.95;;;1.70;;
80157;SDS011;74139;59.092;37.932;2024-01-30T07:54:55;2.58;;;1.02;;
80157;SDS011;74139;59.092;37.932;2024-01-30T07:57:21;2.15;;;1.27;;
80157;SDS011;74139;59.092;37.932;2024-01-30T07:59:46;3.25;;;1.27;;
80157;SDS011;74139;59.092;37.932;2024-01-30T08:02:12;4.30;;;1.48;;
80157;SDS011;74139;59.092;37.932;2024-01-30T08:04:38;2.30;;;1.50;;
80157;SDS011;74139;59.092;37.932;2024-01-30T08:07:04;4.80;;;1.55;;
80157;SDS011;74139;59.092;37.932;2024-01-30T08:09:30;3.17;;;1.52;;
80157;SDS011;74139;59.092;37.932;2024-01-30T08:11:56;2.05;;;1.10;;
80157;SDS011;74139;59.092;37.932;2024-01-30T08:14:23;2.53;;;1.13;;
80157;SDS011;74139;59.092;37.932;2024-01-30T08:16:49;2.05;;;1.33;;
80157;SDS011;74139;59.092;37.932;2024-01-30T08:19:14;4.53;;;1.00;;
80157;SDS011;74139;59.092;37.932;2024-01-30T08:21:40;3.75;;;1.40;;
80157;SDS011;74139;59.092;37.932;2024-01-30T08:24:07;5.22;;;1.60;;
80157;SDS011;74139;59.092;37.932;2024-01-30T08:26:33;2.10;;;1.05;;
80157;SDS011;74139;59.092;37.932;2024-01-30T08:28:59;4.13;;;1.33;;
80157;SDS011;74139;59.092;37.932;2024-01-30T08:31:25;2.78;;;1.48;;
80157;SDS011;74139;59.092;37.932;2024-01-30T08:33:51;4.38;;;1.40;;
80157;SDS011;74139;59.092;37.932;2024-01-30T08:36:16;4.97;;;1.27;;
80157;SDS011;74139;59.092;37.932;2024-01-30T08:38:42;3.05;;;1.20;;
80157;SDS011;74139;59.092;37.932;2024-01-30T08:41:08;3.35;;;1.45;;
80157;SDS011;74139;59.092;37.932;2024-01-30T08:43:34;3.42;;;1.27;;
80157;SDS011;74139;59.092;37.932;2024-01-30T08:46:05;2.53;;;1.50;;
80157;SDS011;74139;59.092;37.932;2024-01-30T08:48:31;5.32;;;2.08;;
80157;SDS011;74139;59.092;37.932;2024-01-30T08:50:57;3.17;;;1.33;;
80157;SDS011;74139;59.092;37.932;2024-01-30T08:53:23;3.80;;;1.55;;
80157;SDS011;74139;59.092;37.932;2024-01-30T08:55:49;3.80;;;1.48;;
80157;SDS011;74139;59.092;37.932;2024-01-30T08:58:15;5.90;;;1.50;;
80157;SDS011;74139;59.092;37.932;2024-01-30T09:00:41;3.67;;;1.58;;
80157;SDS011;74139;59.092;37.932;2024-01-30T09:03:06;7.65;;;1.70;;
80157;SDS011;74139;59.092;37.932;2024-01-30T09:05:32;3.72;;;1.75;;
80157;SDS011;74139;59.092;37.932;2024-01-30T09:07:58;4.00;;;1.60;;
80157;SDS011;74139;59.092;37.932;2024-01-30T09:10:24;3.15;;;1.30;;
80157;SDS011;74139;59.092;37.932;2024-01-30T09:12:50;3.40;;;1.48;;
80157;SDS011;74139;59.092;37.932;2024-01-30T09:15:16;5.43;;;1.70;;
80157;SDS011;74139;59.092;37.932;2024-01-30T09:17:41;3.60;;;1.50;;
80157;SDS011;74139;59.092;37.932;2024-01-30T09:20:07;4.68;;;1.45;;
80157;SDS011;74139;59.092;37.932;2024-01-30T09:22:34;4.88;;;2.15;;
80157;SDS011;74139;59.092;37.932;2024-01-30T09:25:00;4.70;;;1.60;;
80157;SDS011;74139;59.092;37.932;2024-01-30T09:27:26;4.57;;;1.55;;
80157;SDS011;74139;59.092;37.932;2024-01-30T09:29:52;5.53;;;1.67;;
80157;SDS011;74139;59.092;37.932;2024-01-30T09:32:17;3.25;;;1.38;;
80157;SDS011;74139;59.092;37.932;2024-01-30T09:34:44;2.47;;;1.40;;
80157;SDS011;74139;59.092;37.932;2024-01-30T09:37:10;5.43;;;1.52;;
80157;SDS011;74139;59.092;37.932;2024-01-30T09:39:35;4.05;;;1.50;;
80157;SDS011;74139;59.092;37.932;2024-01-30T09:42:05;3.78;;;1.38;;
80157;SDS011;74139;59.092;37.932;2024-01-30T09:44:31;3.25;;;1.63;;
80157;SDS011;74139;59.092;37.932;2024-01-30T09:47:00;3.17;;;1.48;;
80157;SDS011;74139;59.092;37.932;2024-01-30T09:49:30;3.17;;;1.42;;
80157;SDS011;74139;59.092;37.932;2024-01-30T09:51:57;4.70;;;1.95;;
80157;SDS011;74139;59.092;37.932;2024-01-30T09:54:23;5.90;;;1.52;;
80157;SDS011;74139;59.092;37.932;2024-01-30T09:56:49;3.25;;;1.65;;
80157;SDS011;74139;59.092;37.932;2024-01-30T09:59:15;2.70;;;1.42;;
80157;SDS011;74139;59.092;37.932;2024-01-30T10:01:41;3.63;;;1.50;;
80157;SDS011;74139;59.092;37.932;2024-01-30T10:04:08;5.35;;;1.70;;
80157;SDS011;74139;59.092;37.932;2024-01-30T10:06:34;2.47;;;1.40;;
80157;SDS011;74139;59.092;37.932;2024-01-30T10:08:59;2.17;;;1.40;;
80157;SDS011;74139;59.092;37.932;2024-01-30T10:11:25;3.42;;;1.60;;
80157;SDS011;74139;59.092;37.932;2024-01-30T10:13:51;2.38;;;1.48;;
80157;SDS011;74139;59.092;37.932;2024-01-30T10:16:17;2.55;;;1.40;;
80157;SDS011;74139;59.092;37.932;2024-01-30T10:18:43;2.42;;;1.42;;
80157;SDS011;74139;59.092;37.932;2024-01-30T10:21:09;2.47;;;1.40;;
80157;SDS011;74139;59.092;37.932;2024-01-30T10:26:02;2.97;;;1.42;;
80157;SDS011;74139;59.092;37.932;2024-01-30T10:28:28;2.47;;;1.55;;
80157;SDS011;74139;59.092;37.932;2024-01-30T10:30:59;2.53;;;1.50;;
80157;SDS011;74139;59.092;37.932;2024-01-30T10:33:26;3.72;;;1.70;;
80157;SDS011;74139;59.092;37.932;2024-01-30T10:36:02;2.97;;;1.58;;
80157;SDS011;74139;59.092;37.932;2024-01-30T10:38:29;3.70;;;1.85;;
80157;SDS011;74139;59.092;37.932;2024-01-30T10:40:59;3.35;;;1.67;;
80157;SDS011;74139;59.092;37.932;2024-01-30T10:43:29;2.88;;;1.77;;
80157;SDS011;74139;59.092;37.932;2024-01-30T10:45:56;3.22;;;1.63;;
80157;SDS011;74139;59.092;37.932;2024-01-30T10:48:24;2.83;;;1.70;;
80157;SDS011;74139;59.092;37.932;2024-01-30T10:50:51;3.45;;;1.63;;
80157;SDS011;74139;59.092;37.932;2024-01-30T10:53:19;3.70;;;1.60;;
80157;SDS011;74139;59.092;37.932;2024-01-30T10:55:45;4.53;;;2.47;;
80157;SDS011;74139;59.092;37.932;2024-01-30T10:58:12;2.33;;;1.42;;
80157;SDS011;74139;59.092;37.932;2024-01-30T11:00:38;3.53;;;1.67;;
80157;SDS011;74139;59.092;37.932;2024-01-30T11:03:04;2.75;;;1.60;;
80157;SDS011;74139;59.092;37.932;2024-01-30T11:05:30;4.03;;;1.80;;
80157;SDS011;74139;59.092;37.932;2024-01-30T11:07:56;4.22;;;1.75;;
80157;SDS011;74139;59.092;37.932;2024-01-30T11:10:22;2.88;;;1.60;;
80157;SDS011;74139;59.092;37.932;2024-01-30T11:12:50;2.85;;;1.45;;
80157;SDS011;74139;59.092;37.932;2024-01-30T11:15:17;3.33;;;1.60;;
80157;SDS011;74139;59.092;37.932;2024-01-30T11:20:15;4.20;;;1.88;;
80157;SDS011;74139;59.092;37.932;2024-01-30T11:22:45;3.60;;;1.67;;
80157;SDS011;74139;59.092;37.932;2024-01-30T11:25:15;3.78;;;1.73;;
80157;SDS011;74139;59.092;37.932;2024-01-30T11:27:41;5.55;;;1.63;;
80157;SDS011;74139;59.092;37.932;2024-01-30T11:30:07;2.95;;;1.35;;
80157;SDS011;74139;59.092;37.932;2024-01-30T11:32:33;2.83;;;1.73;;
80157;SDS011;74139;59.092;37.932;2024-01-30T11:34:59;3.00;;;1.42;;
80157;SDS011;74139;59.092;37.932;2024-01-30T11:37:25;3.85;;;1.52;;
80157;SDS011;74139;59.092;37.932;2024-01-30T11:39:53;2.50;;;1.45;;
80157;SDS011;74139;59.092;37.932;2024-01-30T11:42:19;3.17;;;1.42;;
80157;SDS011;74139;59.092;37.932;2024-01-30T11:44:48;3.70;;;1.85;;
80157;SDS011;74139;59.092;37.932;2024-01-30T11:47:14;3.05;;;1.42;;
80157;SDS011;74139;59.092;37.932;2024-01-30T11:49:40;4.03;;;1.52;;
80157;SDS011;74139;59.092;37.932;2024-01-30T11:52:06;2.47;;;1.17;;
80157;SDS011;74139;59.092;37.932;2024-01-30T11:54:32;2.60;;;1.40;;
80157;SDS011;74139;59.092;37.932;2024-01-30T11:56:58;3.67;;;1.65;;
80157;SDS011;74139;59.092;37.932;2024-01-30T11:59:24;3.55;;;1.60;;
80157;SDS011;74139;59.092;37.932;2024-01-30T12:01:51;3.80;;;1.77;;
80157;SDS011;74139;59.092;37.932;2024-01-30T12:04:17;2.60;;;1.40;;
80157;SDS011;74139;59.092;37.932;2024-01-30T12:06:43;4.50;;;1.70;;
80157;SDS011;74139;59.092;37.932;2024-01-30T12:09:09;2.95;;;1.52;;
80157;SDS011;74139;59.092;37.932;2024-01-30T12:11:46;3.85;;;1.40;;
80157;SDS011;74139;59.092;37.932;2024-01-30T12:14:12;2.95;;;1.17;;
80157;SDS011;74139;59.092;37.932;2024-01-30T12:16:39;3.70;;;1.40;;
80157;SDS011;74139;59.092;37.932;2024-01-30T12:19:04;3.00;;;1.20;;
80157;SDS011;74139;59.092;37.932;2024-01-30T12:21:30;3.80;;;1.30;;
80157;SDS011;74139;59.092;37.932;2024-01-30T12:23:57;3.42;;;1.40;;
80157;SDS011;74139;59.092;37.932;2024-01-30T12:26:23;2.42;;;1.20;;
80157;SDS011;74139;59.092;37.932;2024-01-30T12:28:53;2.67;;;1.35;;
80157;SDS011;74139;59.092;37.932;2024-01-30T12:31:27;5.88;;;1.88;;
80157;SDS011;74139;59.092;37.932;2024-01-30T12:33:53;3.28;;;1.60;;
80157;SDS011;74139;59.092;37.932;2024-01-30T12:36:19;3.00;;;1.50;;
80157;SDS011;74139;59.092;37.932;2024-01-30T12:38:45;2.72;;;1.48;;
80157;SDS011;74139;59.092;37.932;2024-01-30T12:41:11;2.60;;;1.27;;
80157;SDS011;74139;59.092;37.932;2024-01-30T12:43:36;3.28;;;1.42;;
80157;SDS011;74139;59.092;37.932;2024-01-30T12:46:02;2.30;;;1.25;;
80157;SDS011;74139;59.092;37.932;2024-01-30T12:48:28;5.07;;;1.33;;
80157;SDS011;74139;59.092;37.932;2024-01-30T12:50:55;4.22;;;1.70;;
80157;SDS011;74139;59.092;37.932;2024-01-30T12:55:47;2.65;;;1.40;;
80157;SDS011;74139;59.092;37.932;2024-01-30T12:58:15;2.63;;;1.42;;
80157;SDS011;74139;59.092;37.932;2024-01-30T13:00:41;3.22;;;1.52;;
80157;SDS011;74139;59.092;37.932;2024-01-30T13:03:09;4.15;;;1.23;;
80157;SDS011;74139;59.092;37.932;2024-01-30T13:05:35;3.17;;;1.35;;
80157;SDS011;74139;59.092;37.932;2024-01-30T13:08:00;3.78;;;1.30;;
80157;SDS011;74139;59.092;37.932;2024-01-30T13:10:26;3.00;;;1.40;;
80157;SDS011;74139;59.092;37.932;2024-01-30T13:12:53;3.28;;;1.42;;
80157;SDS011;74139;59.092;37.932;2024-01-30T13:15:18;3.92;;;1.67;;
80157;SDS011;74139;59.092;37.932;2024-01-30T13:17:44;3.25;;;1.40;;
80157;SDS011;74139;59.092;37.932;2024-01-30T13:20:13;1.85;;;1.23;;
80157;SDS011;74139;59.092;37.932;2024-01-30T13:22:43;4.13;;;1.38;;
80157;SDS011;74139;59.092;37.932;2024-01-30T13:25:09;3.13;;;1.42;;
80157;SDS011;74139;59.092;37.932;2024-01-30T13:27:35;3.72;;;1.60;;
80157;SDS011;74139;59.092;37.932;2024-01-30T13:32:26;3.38;;;1.42;;
80157;SDS011;74139;59.092;37.932;2024-01-30T13:34:52;4.60;;;1.70;;
80157;SDS011;74139;59.092;37.932;2024-01-30T13:37:18;2.40;;;1.17;;
80157;SDS011;74139;59.092;37.932;2024-01-30T13:39:44;2.03;;;1.20;;
80157;SDS011;74139;59.092;37.932;2024-01-30T13:42:10;1.77;;;1.40;;
80157;SDS011;74139;59.092;37.932;2024-01-30T13:44:35;2.97;;;1.23;;
80157;SDS011;74139;59.092;37.932;2024-01-30T13:47:02;2.97;;;1.17;;
80157;SDS011;74139;59.092;37.932;2024-01-30T13:49:28;2.03;;;1.17;;
80157;SDS011;74139;59.092;37.932;2024-01-30T13:51:53;3.08;;;1.30;;
80157;SDS011;74139;59.092;37.932;2024-01-30T13:54:19;2.65;;;1.50;;
80157;SDS011;74139;59.092;37.932;2024-01-30T13:56:45;4.85;;;1.30;;
80157;SDS011;74139;59.092;37.932;2024-01-30T13:59:11;3.20;;;1.65;;
80157;SDS011;74139;59.092;37.932;2024-01-30T14:01:36;2.63;;;1.38;;
80157;SDS011;74139;59.092;37.932;2024-01-30T14:04:02;5.65;;;1.38;;
80157;SDS011;74139;59.092;37.932;2024-01-30T14:06:28;5.35;;;1.25;;
80157;SDS011;74139;59.092;37.932;2024-01-30T14:08:55;2.92;;;1.35;;
80157;SDS011;74139;59.092;37.932;2024-01-30T14:11:20;3.30;;;1.30;;
80157;SDS011;74139;59.092;37.932;2024-01-30T14:13:46;2.88;;;1.38;;
80157;SDS011;74139;59.092;37.932;2024-01-30T14:16:12;4.32;;;1.45;;
80157;SDS011;74139;59.092;37.932;2024-01-30T14:18:38;2.58;;;1.25;;
80157;SDS011;74139;59.092;37.932;2024-01-30T14:21:04;2.92;;;1.80;;
80157;SDS011;74139;59.092;37.932;2024-01-30T14:23:30;3.92;;;1.25;;
80157;SDS011;74139;59.092;37.932;2024-01-30T14:25:55;2.75;;;1.27;;
80157;SDS011;74139;59.092;37.932;2024-01-30T14:28:21;3.10;;;1.17;;
80157;SDS011;74139;59.092;37.932;2024-01-30T14:30:47;2.63;;;1.20;;
80157;SDS011;74139;59.092;37.932;2024-01-30T14:33:13;4.78;;;1.30;;
80157;SDS011;74139;59.092;37.932;2024-01-30T14:35:39;4.78;;;1.25;;
80157;SDS011;74139;59.092;37.932;2024-01-30T14:38:04;4.43;;;1.50;;
80157;SDS011;74139;59.092;37.932;2024-01-30T14:40:33;2.50;;;1.20;;